Madeline — WDF2406 — position and weather

sailwx.info

Track history (hours):
 
Tides and Currents Weather Stations Pressure Air Temp Water Temp Dewpoint Dewpoint Depression Visibility Wind Speed Wind Dir Waves Ship Positions

Madeline

Owner: Enterprise Marine Services, LLC, San Antonio, TX. More information available from US FCC via Universal Licensing System and Coast Guard Vessel Documentation Center.

Last reported at 2015-Apr-29 12:28 UTC. Time now 2015-May-06 02:23 UTC.
Position N 29°34' W 090°56'.

Length 30 m; draft 8 m.

Type: Tug. MMSI: 367350460.

Date/timePositionNaut miles runAvg speedWind from/ knotsBaromVisibWave heightAir tempDewpointWater temp
2015-Apr-29 12:28N 29°34' W 090°56'6 6.6
2015-Apr-29 11:33N 29°32' W 090°49'5 5.0
2015-Apr-29 10:33N 29°34' W 090°44'3 3.3
2015-Apr-29 09:34N 29°37' W 090°41'2 2.2
2015-Apr-29 08:33N 29°36' W 090°39'5 5.2
2015-Apr-29 07:30N 29°34' W 090°33'37 3.7
2015-Apr-28 21:33N 29°55' W 089°58'1 0.6
2015-Apr-28 20:10N 29°55' W 089°57'0 0.0
2015-Apr-28 19:26N 29°55' W 089°57'0 0.0
2015-Apr-28 18:20N 29°55' W 089°57'0 0.0
2015-Apr-28 17:32N 29°55' W 089°57'0 0.0
2015-Apr-28 16:30N 29°55' W 089°57'0 0.0
2015-Apr-28 15:30N 29°55' W 089°57'0 0.0
2015-Apr-28 14:04N 29°55' W 089°57'0 0.0
2015-Apr-28 05:17N 29°55' W 089°57'0 0.0
2015-Apr-28 04:27N 29°55' W 089°57'0 0.0
2015-Apr-28 03:31N 29°55' W 089°57'0 0.0
2015-Apr-28 02:30N 29°55' W 089°57'0 0.0
2015-Apr-28 01:29N 29°55' W 089°57'0 0.0
2015-Apr-28 00:26N 29°55' W 089°57'23 1.9
2015-Apr-27 12:11N 29°59' W 090°24'0 0.0
2015-Apr-27 11:30N 29°59' W 090°24'0 0.0
2015-Apr-27 09:31N 29°59' W 090°24'0 0.0
2015-Apr-27 04:32N 29°59' W 090°24'  
2015-Apr-23 11:20N 29°33' W 090°24'5 2.6
2015-Apr-23 09:15N 29°34' W 090°30'5 6.5
2015-Apr-23 08:33N 29°35' W 090°35'6 5.8
2015-Apr-23 07:33N 29°37' W 090°41'4 4.2
2015-Apr-23 06:34N 29°34' W 090°45'7 5.7
2015-Apr-23 05:19N 29°32' W 090°53'  
2015-Apr-21 00:33N 29°30' W 094°53'8 7.9
2015-Apr-20 23:33N 29°37' W 094°57'8 7.6
2015-Apr-20 22:33N 29°44' W 095°02'4 4.4
2015-Apr-20 21:33N 29°47' W 095°05'0 0.2
2015-Apr-20 20:33N 29°47' W 095°05'0 0.0
2015-Apr-20 19:33N 29°47' W 095°05'0 0.0
2015-Apr-20 18:33N 29°47' W 095°05'0 0.0
2015-Apr-20 17:33N 29°47' W 095°05'0 0.0
2015-Apr-20 16:33N 29°47' W 095°05'0 0.0
2015-Apr-20 15:33N 29°47' W 095°05'0 0.0
2015-Apr-20 14:34N 29°47' W 095°05'0 0.0
2015-Apr-20 13:33N 29°47' W 095°05'0 0.0
2015-Apr-20 12:33N 29°47' W 095°05'0 0.0
2015-Apr-20 11:33N 29°47' W 095°05'0 0.0
2015-Apr-20 10:33N 29°47' W 095°05'0 0.0
2015-Apr-20 09:33N 29°47' W 095°05'0 0.0
2015-Apr-20 08:33N 29°47' W 095°05'0 0.0
2015-Apr-20 07:33N 29°47' W 095°05'0 0.0
2015-Apr-20 06:33N 29°47' W 095°05'0 0.0
2015-Apr-20 05:33N 29°47' W 095°05'0 0.0
2015-Apr-20 04:33N 29°47' W 095°05'0 0.0
2015-Apr-20 03:33N 29°47' W 095°05'0 0.0
2015-Apr-20 02:33N 29°47' W 095°05'0 0.0
2015-Apr-20 01:31N 29°47' W 095°05'0 0.0
2015-Apr-20 00:33N 29°47' W 095°05'0 0.0
2015-Apr-19 23:34N 29°47' W 095°05'0 0.0
2015-Apr-19 22:33N 29°47' W 095°05'0 0.0
2015-Apr-19 21:33N 29°47' W 095°05'0 0.0
2015-Apr-19 20:31N 29°47' W 095°05'0 0.0
2015-Apr-19 19:33N 29°47' W 095°05'0 0.0
2015-Apr-19 18:32N 29°47' W 095°05'0 0.0
2015-Apr-19 17:33N 29°47' W 095°05'0 0.0
2015-Apr-19 16:33N 29°47' W 095°05'0 0.0
2015-Apr-19 15:33N 29°47' W 095°05'0 0.0
2015-Apr-19 14:31N 29°47' W 095°05'0 0.0
2015-Apr-19 13:32N 29°47' W 095°05'0 0.0
2015-Apr-19 12:33N 29°47' W 095°05'  
Track history (hours):
 
Tides and Currents Weather Stations Pressure Air Temp Water Temp Dewpoint Dewpoint Depression Visibility Wind Speed Wind Dir Waves Ship Positions

Madeline

Owner: Enterprise Marine Services, LLC, San Antonio, TX. More information available from US FCC via Universal Licensing System and Coast Guard Vessel Documentation Center.

Last reported at 2015-Apr-29 12:28 UTC. Time now 2015-May-06 02:23 UTC.
Position N 29°34' W 090°56'.

Length 30 m; draft 8 m.

Type: Tug. MMSI: 367350460.

Date/timePositionNaut miles runAvg speedWind from/ knotsBaromVisibWave heightAir tempDewpointWater temp
2015-Apr-29 12:28N 29°34' W 090°56'6 6.6
2015-Apr-29 11:33N 29°32' W 090°49'5 5.0
2015-Apr-29 10:33N 29°34' W 090°44'3 3.3
2015-Apr-29 09:34N 29°37' W 090°41'2 2.2
2015-Apr-29 08:33N 29°36' W 090°39'5 5.2
2015-Apr-29 07:30N 29°34' W 090°33'37 3.7
2015-Apr-28 21:33N 29°55' W 089°58'1 0.6
2015-Apr-28 20:10N 29°55' W 089°57'0 0.0
2015-Apr-28 19:26N 29°55' W 089°57'0 0.0
2015-Apr-28 18:20N 29°55' W 089°57'0 0.0
2015-Apr-28 17:32N 29°55' W 089°57'0 0.0
2015-Apr-28 16:30N 29°55' W 089°57'0 0.0
2015-Apr-28 15:30N 29°55' W 089°57'0 0.0
2015-Apr-28 14:04N 29°55' W 089°57'0 0.0
2015-Apr-28 05:17N 29°55' W 089°57'0 0.0
2015-Apr-28 04:27N 29°55' W 089°57'0 0.0
2015-Apr-28 03:31N 29°55' W 089°57'0 0.0
2015-Apr-28 02:30N 29°55' W 089°57'0 0.0
2015-Apr-28 01:29N 29°55' W 089°57'0 0.0
2015-Apr-28 00:26N 29°55' W 089°57'23 1.9
2015-Apr-27 12:11N 29°59' W 090°24'0 0.0
2015-Apr-27 11:30N 29°59' W 090°24'0 0.0
2015-Apr-27 09:31N 29°59' W 090°24'0 0.0
2015-Apr-27 04:32N 29°59' W 090°24'  
2015-Apr-23 11:20N 29°33' W 090°24'5 2.6
2015-Apr-23 09:15N 29°34' W 090°30'5 6.5
2015-Apr-23 08:33N 29°35' W 090°35'6 5.8
2015-Apr-23 07:33N 29°37' W 090°41'4 4.2
2015-Apr-23 06:34N 29°34' W 090°45'7 5.7
2015-Apr-23 05:19N 29°32' W 090°53'  
2015-Apr-21 00:33N 29°30' W 094°53'8 7.9
2015-Apr-20 23:33N 29°37' W 094°57'8 7.6
2015-Apr-20 22:33N 29°44' W 095°02'4 4.4
2015-Apr-20 21:33N 29°47' W 095°05'0 0.2
2015-Apr-20 20:33N 29°47' W 095°05'0 0.0
2015-Apr-20 19:33N 29°47' W 095°05'0 0.0
2015-Apr-20 18:33N 29°47' W 095°05'0 0.0
2015-Apr-20 17:33N 29°47' W 095°05'0 0.0
2015-Apr-20 16:33N 29°47' W 095°05'0 0.0
2015-Apr-20 15:33N 29°47' W 095°05'0 0.0
2015-Apr-20 14:34N 29°47' W 095°05'0 0.0
2015-Apr-20 13:33N 29°47' W 095°05'0 0.0
2015-Apr-20 12:33N 29°47' W 095°05'0 0.0
2015-Apr-20 11:33N 29°47' W 095°05'0 0.0
2015-Apr-20 10:33N 29°47' W 095°05'0 0.0
2015-Apr-20 09:33N 29°47' W 095°05'0 0.0
2015-Apr-20 08:33N 29°47' W 095°05'0 0.0
2015-Apr-20 07:33N 29°47' W 095°05'0 0.0
2015-Apr-20 06:33N 29°47' W 095°05'0 0.0
2015-Apr-20 05:33N 29°47' W 095°05'0 0.0
2015-Apr-20 04:33N 29°47' W 095°05'0 0.0
2015-Apr-20 03:33N 29°47' W 095°05'0 0.0
2015-Apr-20 02:33N 29°47' W 095°05'0 0.0
2015-Apr-20 01:31N 29°47' W 095°05'0 0.0
2015-Apr-20 00:33N 29°47' W 095°05'0 0.0
2015-Apr-19 23:34N 29°47' W 095°05'0 0.0
2015-Apr-19 22:33N 29°47' W 095°05'0 0.0
2015-Apr-19 21:33N 29°47' W 095°05'0 0.0
2015-Apr-19 20:31N 29°47' W 095°05'0 0.0
2015-Apr-19 19:33N 29°47' W 095°05'0 0.0
2015-Apr-19 18:32N 29°47' W 095°05'0 0.0
2015-Apr-19 17:33N 29°47' W 095°05'0 0.0
2015-Apr-19 16:33N 29°47' W 095°05'0 0.0
2015-Apr-19 15:33N 29°47' W 095°05'0 0.0
2015-Apr-19 14:31N 29°47' W 095°05'0 0.0
2015-Apr-19 13:32N 29°47' W 095°05'0 0.0
2015-Apr-19 12:33N 29°47' W 095°05'  

Dump ship's entire track history